createdAt,value
2017-12-15T00:00:51.095Z,0
2017-12-15T00:02:00.780Z,0
2017-12-15T00:03:10.250Z,0
2017-12-15T00:04:20.202Z,0
2017-12-15T00:05:29.913Z,0
2017-12-15T00:06:39.889Z,0
2017-12-15T00:07:49.830Z,0
2017-12-15T00:08:59.528Z,0
2017-12-15T00:10:09.260Z,0
2017-12-15T00:11:19.214Z,0
2017-12-15T00:12:28.896Z,0
2017-12-15T00:13:38.117Z,0
2017-12-15T00:14:48.060Z,0
2017-12-15T00:15:57.754Z,0
2017-12-15T00:17:07.445Z,0
2017-12-15T00:18:17.386Z,0
2017-12-15T00:19:27.338Z,0
2017-12-15T00:20:37.036Z,0
2017-12-15T00:21:46.718Z,0
2017-12-15T00:22:56.149Z,0
2017-12-15T00:24:06.096Z,0
2017-12-15T00:25:15.782Z,0
2017-12-15T00:26:25.755Z,0
2017-12-15T00:27:35.443Z,0
2017-12-15T00:28:45.384Z,0
2017-12-15T00:29:55.324Z,0
2017-12-15T00:31:04.746Z,0
2017-12-15T00:32:14.693Z,0
2017-12-15T00:33:24.120Z,0
2017-12-15T00:34:34.070Z,0
2017-12-15T00:35:43.762Z,0
2017-12-15T00:36:53.699Z,0
2017-12-15T00:38:03.388Z,0
2017-12-15T00:39:13.069Z,0
2017-12-15T00:40:23.028Z,0
2017-12-15T00:41:32.968Z,0
2017-12-15T00:42:42.650Z,0
2017-12-15T00:43:52.607Z,0
2017-12-15T00:45:02.044Z,0
2017-12-15T00:46:11.729Z,0
2017-12-15T00:47:21.441Z,0
2017-12-15T00:48:31.383Z,0
2017-12-15T00:49:41.073Z,0
2017-12-15T00:50:50.499Z,0
2017-12-15T00:52:00.183Z,0
2017-12-15T00:53:10.145Z,0
2017-12-15T00:54:20.089Z,0
2017-12-15T00:55:29.776Z,0
2017-12-15T00:56:39.216Z,0
2017-12-15T00:57:48.901Z,0
2017-12-15T00:58:58.323Z,0
2017-12-15T01:00:08.262Z,0
2017-12-15T01:01:18.205Z,0
2017-12-15T01:02:28.157Z,0
2017-12-15T01:03:37.847Z,0
2017-12-15T01:04:47.528Z,0
2017-12-15T01:05:56.962Z,0
2017-12-15T01:07:06.390Z,0
2017-12-15T01:08:15.820Z,0
2017-12-15T01:09:25.766Z,0
2017-12-15T01:10:34.933Z,0
2017-12-15T01:11:44.622Z,0
2017-12-15T01:12:53.793Z,0
2017-12-15T01:14:03.736Z,0
2017-12-15T01:15:13.422Z,0
2017-12-15T01:16:23.373Z,0
2017-12-15T01:17:33.338Z,0
2017-12-15T01:18:43.293Z,0
2017-12-15T01:19:53.247Z,0
2017-12-15T01:21:03.188Z,0
2017-12-15T01:22:12.945Z,0
2017-12-15T01:23:22.896Z,0
2017-12-15T01:24:32.587Z,0
2017-12-15T01:25:42.028Z,0
2017-12-15T01:26:51.201Z,0
2017-12-15T01:28:00.879Z,0
2017-12-15T01:29:10.313Z,0
2017-12-15T01:30:20.251Z,0
2017-12-15T01:31:30.202Z,0
2017-12-15T01:32:40.154Z,0
2017-12-15T01:33:50.041Z,0
2017-12-15T01:34:59.725Z,0
2017-12-15T01:36:08.893Z,0
2017-12-15T01:37:18.833Z,0
2017-12-15T01:38:28.779Z,0
2017-12-15T01:39:38.473Z,0
2017-12-15T01:40:48.155Z,0
2017-12-15T01:41:57.850Z,0
2017-12-15T01:43:07.788Z,0
2017-12-15T01:44:17.472Z,0
2017-12-15T01:45:27.155Z,0
2017-12-15T01:46:36.841Z,0
2017-12-15T01:47:46.791Z,0
2017-12-15T01:48:56.210Z,0
2017-12-15T01:50:05.653Z,0
2017-12-15T01:51:15.355Z,0
2017-12-15T01:52:25.309Z,0
2017-12-15T01:53:34.740Z,0
2017-12-15T01:54:44.441Z,0
2017-12-15T01:55:54.395Z,0
2017-12-15T01:57:04.332Z,0
2017-12-15T01:58:14.039Z,0
2017-12-15T01:59:23.757Z,0
2017-12-15T02:00:33.687Z,0
2017-12-15T02:01:43.384Z,0
2017-12-15T02:02:53.116Z,0
2017-12-15T02:04:02.799Z,0
2017-12-15T02:05:12.743Z,0
2017-12-15T02:06:22.689Z,0
2017-12-15T02:07:32.674Z,0
2017-12-15T02:08:42.371Z,0
2017-12-15T02:09:51.543Z,0
2017-12-15T02:11:00.968Z,0
2017-12-15T02:12:10.919Z,0
2017-12-15T02:13:20.611Z,0
2017-12-15T02:14:30.309Z,0
2017-12-15T02:15:39.999Z,0
2017-12-15T02:16:49.943Z,0
2017-12-15T02:17:59.628Z,0
2017-12-15T02:19:09.307Z,0
2017-12-15T02:20:19.004Z,0
2017-12-15T02:21:28.946Z,0
2017-12-15T02:22:38.630Z,0
2017-12-15T02:23:48.561Z,0
2017-12-15T02:24:57.982Z,0
2017-12-15T02:26:07.972Z,0
2017-12-15T02:27:17.397Z,0
2017-12-15T02:28:27.347Z,0
2017-12-15T02:29:37.285Z,0
2017-12-15T02:30:46.473Z,0
2017-12-15T02:31:56.156Z,0
2017-12-15T02:33:05.593Z,0
2017-12-15T02:34:15.292Z,0
2017-12-15T02:35:25.239Z,0
2017-12-15T02:36:34.965Z,0
2017-12-15T02:37:44.656Z,0
2017-12-15T02:38:54.092Z,0
2017-12-15T02:40:03.530Z,0
2017-12-15T02:41:12.956Z,0
2017-12-15T02:42:22.381Z,0
2017-12-15T02:43:32.066Z,0
2017-12-15T02:44:42.018Z,0
2017-12-15T02:45:51.710Z,0
2017-12-15T02:47:01.659Z,0
2017-12-15T02:48:11.081Z,0
2017-12-15T02:49:21.037Z,0
2017-12-15T02:50:30.728Z,0
2017-12-15T02:51:40.423Z,0
2017-12-15T02:52:50.381Z,0
2017-12-15T02:54:00.328Z,0
2017-12-15T02:55:09.769Z,0
2017-12-15T02:56:19.200Z,0
2017-12-15T02:57:29.148Z,0
2017-12-15T02:58:39.089Z,0
2017-12-15T02:59:49.030Z,0
2017-12-15T03:00:58.998Z,0
2017-12-15T03:02:08.693Z,0
2017-12-15T03:03:18.389Z,0
2017-12-15T03:04:28.330Z,0
2017-12-15T03:05:38.273Z,0
2017-12-15T03:06:48.222Z,0
2017-12-15T03:07:57.910Z,0
2017-12-15T03:09:07.320Z,0
2017-12-15T03:10:16.745Z,0
2017-12-15T03:11:26.676Z,0
2017-12-15T03:12:36.357Z,0
2017-12-15T03:13:46.298Z,0
2017-12-15T03:14:56.235Z,0
2017-12-15T03:16:06.345Z,0
2017-12-15T03:17:15.823Z,0
2017-12-15T03:18:25.537Z,0
2017-12-15T03:19:35.525Z,0
2017-12-15T03:20:45.504Z,0
2017-12-15T03:21:55.863Z,0
2017-12-15T03:23:05.958Z,0
2017-12-15T03:24:15.723Z,0
2017-12-15T03:25:25.418Z,0
2017-12-15T03:26:35.100Z,0
2017-12-15T03:27:45.045Z,0
2017-12-15T03:28:54.987Z,0
2017-12-15T03:30:04.687Z,0
2017-12-15T03:31:14.644Z,0
2017-12-15T03:32:24.636Z,0
2017-12-15T03:33:34.329Z,0
2017-12-15T03:34:44.014Z,0
2017-12-15T03:35:53.956Z,0
2017-12-15T03:37:03.888Z,0
2017-12-15T03:38:13.827Z,0
2017-12-15T03:39:23.806Z,0
2017-12-15T03:40:33.502Z,0
2017-12-15T03:41:43.190Z,0
2017-12-15T03:42:52.866Z,0
2017-12-15T03:44:02.291Z,0
2017-12-15T03:45:12.225Z,0
2017-12-15T03:46:21.909Z,0
2017-12-15T03:47:31.335Z,0
2017-12-15T03:48:41.296Z,0
2017-12-15T03:49:50.974Z,0
2017-12-15T03:51:00.651Z,0
2017-12-15T03:52:10.618Z,0
2017-12-15T03:53:20.552Z,0
2017-12-15T03:54:30.236Z,0
2017-12-15T03:55:39.927Z,0
2017-12-15T03:56:49.979Z,0
2017-12-15T03:57:59.924Z,0
2017-12-15T03:59:09.599Z,0
2017-12-15T04:00:19.283Z,0
2017-12-15T04:01:28.954Z,0
2017-12-15T04:02:38.392Z,0
2017-12-15T04:03:48.406Z,0
2017-12-15T04:04:58.141Z,0
2017-12-15T04:06:08.100Z,0
2017-12-15T04:07:18.038Z,0
2017-12-15T04:08:27.479Z,0
2017-12-15T04:09:36.901Z,0
2017-12-15T04:10:46.322Z,0
2017-12-15T04:11:56.009Z,0
2017-12-15T04:13:05.947Z,0
2017-12-15T04:14:15.658Z,0
2017-12-15T04:15:25.342Z,0
2017-12-15T04:16:34.769Z,0
2017-12-15T04:17:44.448Z,0
2017-12-15T04:18:54.396Z,0
2017-12-15T04:20:03.816Z,0
2017-12-15T04:21:13.767Z,0
2017-12-15T04:22:23.462Z,0
2017-12-15T04:23:32.633Z,0
2017-12-15T04:24:42.570Z,0
2017-12-15T04:25:52.512Z,0
2017-12-15T04:27:02.196Z,0
2017-12-15T04:28:11.621Z,0
2017-12-15T04:29:21.563Z,0
2017-12-15T04:30:31.503Z,0
2017-12-15T04:31:40.937Z,0
2017-12-15T04:32:50.361Z,0
2017-12-15T04:34:00.034Z,0
2017-12-15T04:35:09.714Z,0
2017-12-15T04:36:19.403Z,0
2017-12-15T04:37:29.089Z,0
2017-12-15T04:38:38.525Z,0
2017-12-15T04:39:48.207Z,0
2017-12-15T04:40:58.142Z,0
2017-12-15T04:42:08.093Z,0
2017-12-15T04:43:17.521Z,0
2017-12-15T04:44:26.943Z,0
2017-12-15T04:45:36.628Z,0
2017-12-15T04:46:46.575Z,0
2017-12-15T04:47:56.528Z,0
2017-12-15T04:49:06.472Z,0
2017-12-15T04:50:16.442Z,0
2017-12-15T04:51:26.140Z,0
2017-12-15T04:52:36.083Z,0
2017-12-15T04:53:45.509Z,0
2017-12-15T04:54:55.193Z,0
2017-12-15T04:56:04.875Z,0
2017-12-15T04:57:14.826Z,0
2017-12-15T04:58:24.514Z,0
2017-12-15T04:59:34.212Z,0
2017-12-15T05:00:44.155Z,0
2017-12-15T05:01:54.109Z,0
2017-12-15T05:03:03.798Z,0
2017-12-15T05:04:13.489Z,0
2017-12-15T05:05:23.185Z,0
2017-12-15T05:06:33.123Z,0
2017-12-15T05:07:43.054Z,0
2017-12-15T05:08:52.750Z,0
2017-12-15T05:10:02.689Z,0
2017-12-15T05:11:12.631Z,0
2017-12-15T05:12:22.565Z,0
2017-12-15T05:13:32.260Z,0
2017-12-15T05:14:42.204Z,0
2017-12-15T05:15:51.891Z,0
2017-12-15T05:17:01.838Z,0
2017-12-15T05:18:11.791Z,0
2017-12-15T05:19:21.721Z,0
2017-12-15T05:20:31.422Z,0
2017-12-15T05:21:41.362Z,0
2017-12-15T05:22:50.789Z,0
2017-12-15T05:24:00.469Z,0
2017-12-15T05:25:09.630Z,0
2017-12-15T05:26:19.318Z,0
2017-12-15T05:27:28.754Z,0
2017-12-15T05:28:38.442Z,0
2017-12-15T05:29:48.396Z,0
2017-12-15T05:30:58.349Z,0
2017-12-15T05:32:08.326Z,0
2017-12-15T05:33:18.030Z,0
2017-12-15T05:34:27.751Z,0
2017-12-15T05:35:37.708Z,0
2017-12-15T05:36:47.422Z,0
2017-12-15T05:37:57.126Z,0
2017-12-15T05:39:07.066Z,0
2017-12-15T05:40:17.062Z,0
2017-12-15T05:41:26.750Z,0
2017-12-15T05:42:36.691Z,0
2017-12-15T05:43:46.122Z,0
2017-12-15T05:44:55.835Z,0
2017-12-15T05:46:05.794Z,0
2017-12-15T05:47:14.968Z,0
2017-12-15T05:48:24.924Z,0
2017-12-15T05:49:34.353Z,0
2017-12-15T05:50:43.787Z,0
2017-12-15T05:51:53.750Z,0
2017-12-15T05:53:03.439Z,0
2017-12-15T05:54:13.144Z,0
2017-12-15T05:55:23.094Z,0
2017-12-15T05:56:32.268Z,0
2017-12-15T05:57:41.438Z,0
2017-12-15T05:58:51.387Z,0
2017-12-15T06:00:01.347Z,0
2017-12-15T06:01:11.039Z,0
2017-12-15T06:02:20.215Z,0
2017-12-15T06:03:29.658Z,0
2017-12-15T06:04:39.354Z,0
2017-12-15T06:05:49.315Z,0
2017-12-15T06:06:59.261Z,0
2017-12-15T06:08:09.298Z,0
2017-12-15T06:09:19.235Z,0
2017-12-15T06:10:28.916Z,0
2017-12-15T06:11:38.615Z,0
2017-12-15T06:12:48.039Z,0
2017-12-15T06:13:57.738Z,0
2017-12-15T06:15:07.429Z,0
2017-12-15T06:16:17.136Z,0
2017-12-15T06:17:26.812Z,0
2017-12-15T06:18:36.497Z,0
2017-12-15T06:19:46.184Z,0
2017-12-15T06:20:56.126Z,0
2017-12-15T06:22:05.820Z,0
2017-12-15T06:23:15.240Z,0
2017-12-15T06:24:25.188Z,0
2017-12-15T06:25:34.870Z,0
2017-12-15T06:26:44.827Z,0
2017-12-15T06:27:54.767Z,0
2017-12-15T06:29:04.450Z,0
2017-12-15T06:30:14.389Z,0
2017-12-15T06:31:24.077Z,0
2017-12-15T06:32:34.018Z,0
2017-12-15T06:33:43.958Z,4
2017-12-15T06:34:53.914Z,4
2017-12-15T06:36:03.856Z,4
2017-12-15T06:37:13.807Z,4
2017-12-15T06:38:23.494Z,4
2017-12-15T06:39:32.936Z,4
2017-12-15T06:40:42.618Z,8
2017-12-15T06:41:52.305Z,12
2017-12-15T06:43:02.268Z,12
2017-12-15T06:44:11.958Z,16
2017-12-15T06:45:21.906Z,16
2017-12-15T06:46:31.598Z,20
2017-12-15T06:47:41.559Z,24
2017-12-15T06:48:51.038Z,24
2017-12-15T06:50:00.981Z,32
2017-12-15T06:51:10.670Z,36
2017-12-15T06:52:20.357Z,40
2017-12-15T06:53:30.310Z,52
2017-12-15T06:54:40.015Z,60
2017-12-15T06:55:49.959Z,72
2017-12-15T06:56:59.654Z,80
2017-12-15T06:58:09.350Z,92
2017-12-15T06:59:19.035Z,104
2017-12-15T07:00:28.987Z,120
2017-12-15T07:01:38.938Z,136
2017-12-15T07:02:48.631Z,144
2017-12-15T07:03:58.136Z,164
2017-12-15T07:05:07.954Z,176
2017-12-15T07:06:18.020Z,196
2017-12-15T07:07:28.058Z,212
2017-12-15T07:08:37.799Z,224
2017-12-15T07:09:47.757Z,236
2017-12-15T07:10:57.724Z,248
2017-12-15T07:12:07.231Z,260
2017-12-15T07:13:16.977Z,276
2017-12-15T07:14:26.681Z,292
2017-12-15T07:15:36.651Z,312
2017-12-15T07:16:46.612Z,328
2017-12-15T07:17:56.319Z,344
2017-12-15T07:19:06.310Z,348
2017-12-15T07:20:16.073Z,356
2017-12-15T07:21:26.041Z,364
2017-12-15T07:22:36.007Z,384
2017-12-15T07:23:45.802Z,400
2017-12-15T07:24:55.542Z,420
2017-12-15T07:26:05.499Z,444
2017-12-15T07:27:15.200Z,468
2017-12-15T07:28:24.930Z,492
2017-12-15T07:29:34.695Z,504
2017-12-15T07:30:44.418Z,520
2017-12-15T07:31:54.130Z,536
2017-12-15T07:33:03.840Z,564
2017-12-15T07:34:13.304Z,600
2017-12-15T07:35:23.282Z,624
2017-12-15T07:36:32.988Z,644
2017-12-15T07:37:42.733Z,672
2017-12-15T07:38:52.173Z,704
2017-12-15T07:40:02.124Z,744
2017-12-15T07:41:11.808Z,800
2017-12-15T07:42:21.276Z,876
2017-12-15T07:43:31.229Z,952
2017-12-15T07:44:41.039Z,1020
2017-12-15T07:45:51.124Z,1080
2017-12-15T07:47:00.903Z,1124
2017-12-15T07:48:10.931Z,1156
2017-12-15T07:49:20.926Z,1188
2017-12-15T07:50:30.644Z,1204
2017-12-15T07:51:40.356Z,1216
2017-12-15T07:52:50.071Z,1244
2017-12-15T07:54:00.022Z,1276
2017-12-15T07:55:09.796Z,1312
2017-12-15T07:56:18.963Z,1324
2017-12-15T07:57:28.653Z,1316
2017-12-15T07:58:38.121Z,1320
2017-12-15T07:59:47.555Z,1336
2017-12-15T08:00:57.331Z,1392
2017-12-15T08:02:06.778Z,1396
2017-12-15T08:03:16.756Z,1436
2017-12-15T08:04:26.462Z,1480
2017-12-15T08:05:36.517Z,1544
2017-12-15T08:06:45.975Z,1640
2017-12-15T08:07:55.942Z,1768
2017-12-15T08:09:05.641Z,1932
2017-12-15T08:10:15.343Z,2092
2017-12-15T08:11:25.063Z,2216
2017-12-15T08:12:34.774Z,2304
2017-12-15T08:13:44.749Z,2360
2017-12-15T08:14:54.460Z,2420
2017-12-15T08:16:04.188Z,2524
2017-12-15T08:17:13.934Z,2680
2017-12-15T08:18:23.945Z,2828
2017-12-15T08:19:33.761Z,2932
2017-12-15T08:20:43.840Z,2972
2017-12-15T08:21:53.570Z,2968
2017-12-15T08:23:03.264Z,2996
2017-12-15T08:24:12.971Z,3028
2017-12-15T08:25:22.931Z,3060
2017-12-15T08:26:32.660Z,3068
2017-12-15T08:27:42.372Z,3060
2017-12-15T08:28:52.082Z,3036
2017-12-15T08:30:01.770Z,3000
2017-12-15T08:31:11.215Z,2964
2017-12-15T08:32:20.652Z,2936
2017-12-15T08:33:30.625Z,2916
2017-12-15T08:34:40.594Z,2908
2017-12-15T08:35:50.291Z,2896
2017-12-15T08:37:00.241Z,2892
2017-12-15T08:38:09.479Z,2904
2017-12-15T08:39:19.169Z,2932
2017-12-15T08:40:28.866Z,2992
2017-12-15T08:41:38.820Z,3084
2017-12-15T08:42:48.513Z,3196
2017-12-15T08:43:58.456Z,3304
2017-12-15T08:45:08.510Z,3396
2017-12-15T08:46:17.695Z,3476
2017-12-15T08:47:27.124Z,3548
2017-12-15T08:48:37.066Z,3632
2017-12-15T08:49:47.008Z,3728
2017-12-15T08:50:56.439Z,3816
2017-12-15T08:52:06.412Z,3872
2017-12-15T08:53:15.873Z,3904
2017-12-15T08:54:25.572Z,3924
2017-12-15T08:55:35.541Z,3984
2017-12-15T08:56:45.230Z,4176
2017-12-15T08:57:54.660Z,4516
2017-12-15T08:59:04.084Z,4924
2017-12-15T09:00:14.029Z,5280
2017-12-15T09:01:23.728Z,5504
2017-12-15T09:02:33.674Z,5516
2017-12-15T09:03:43.636Z,5196
2017-12-15T09:04:52.844Z,4804
2017-12-15T09:06:02.537Z,4688
2017-12-15T09:07:12.243Z,4924
2017-12-15T09:08:22.446Z,5448
2017-12-15T09:09:32.417Z,6048
2017-12-15T09:10:42.429Z,6456
2017-12-15T09:11:52.131Z,6480
2017-12-15T09:13:02.159Z,6116
2017-12-15T09:14:11.856Z,5504
2017-12-15T09:15:21.313Z,4944
2017-12-15T09:16:31.264Z,4628
2017-12-15T09:17:40.957Z,4540
2017-12-15T09:18:50.930Z,4568
2017-12-15T09:20:00.107Z,4632
2017-12-15T09:21:09.813Z,4656
2017-12-15T09:22:19.778Z,4580
2017-12-15T09:23:29.510Z,4364
2017-12-15T09:24:39.209Z,4088
2017-12-15T09:25:49.217Z,3816
2017-12-15T09:26:58.641Z,3600
2017-12-15T09:28:08.621Z,3456
2017-12-15T09:29:18.105Z,3376
2017-12-15T09:30:27.558Z,3348
2017-12-15T09:31:37.261Z,3372
2017-12-15T09:32:47.254Z,3424
2017-12-15T09:33:57.212Z,3472
2017-12-15T09:35:07.164Z,3460
2017-12-15T09:36:16.328Z,3356
2017-12-15T09:37:26.245Z,3172
2017-12-15T09:38:35.976Z,2988
2017-12-15T09:39:45.432Z,2888
2017-12-15T09:40:55.403Z,2856
2017-12-15T09:42:05.599Z,2828
2017-12-15T09:43:15.309Z,2792
2017-12-15T09:44:25.266Z,2788
2017-12-15T09:45:35.232Z,2812
2017-12-15T09:46:45.209Z,2840
2017-12-15T09:47:54.928Z,2876
2017-12-15T09:49:04.902Z,2912
2017-12-15T09:50:14.592Z,2908
2017-12-15T09:51:24.610Z,2880
2017-12-15T09:52:34.347Z,2852
2017-12-15T09:53:44.037Z,2832
2017-12-15T09:54:53.986Z,2828
2017-12-15T09:56:03.422Z,2840
2017-12-15T09:57:13.111Z,2876
2017-12-15T09:58:22.562Z,2948
2017-12-15T09:59:32.519Z,3016
2017-12-15T10:00:41.964Z,3040
2017-12-15T10:01:51.747Z,3048
2017-12-15T10:03:01.719Z,3088
2017-12-15T10:04:11.464Z,3188
2017-12-15T10:05:21.169Z,3328
2017-12-15T10:06:31.385Z,3420
2017-12-15T10:07:41.070Z,3448
2017-12-15T10:08:51.018Z,3404
2017-12-15T10:10:00.735Z,3356
2017-12-15T10:11:10.493Z,3356
2017-12-15T10:12:20.452Z,3400
2017-12-15T10:13:30.415Z,3476
2017-12-15T10:14:40.115Z,3536
2017-12-15T10:15:49.558Z,3544
2017-12-15T10:16:59.523Z,3580
2017-12-15T10:18:09.494Z,3764
2017-12-15T10:19:19.483Z,4092
2017-12-15T10:20:29.176Z,4500
2017-12-15T10:21:38.874Z,4812
2017-12-15T10:22:48.339Z,4980
2017-12-15T10:23:58.762Z,5092
2017-12-15T10:25:09.243Z,5256
2017-12-15T10:26:19.030Z,5400
2017-12-15T10:27:28.525Z,5552
2017-12-15T10:28:38.550Z,5576
2017-12-15T10:29:48.737Z,5488
2017-12-15T10:30:58.539Z,5580
2017-12-15T10:32:08.501Z,5820
2017-12-15T10:33:18.458Z,6048
2017-12-15T10:34:27.917Z,6124
2017-12-15T10:35:37.885Z,6216
2017-12-15T10:36:47.355Z,6296
2017-12-15T10:37:57.087Z,6384
2017-12-15T10:39:07.097Z,6452
2017-12-15T10:40:17.053Z,6532
2017-12-15T10:41:26.988Z,6592
2017-12-15T10:42:36.939Z,6644
2017-12-15T10:43:46.385Z,6628
2017-12-15T10:44:56.342Z,6572
2017-12-15T10:46:06.322Z,6540
2017-12-15T10:47:16.021Z,6588
2017-12-15T10:48:26.001Z,6532
2017-12-15T10:49:35.704Z,6480
2017-12-15T10:50:45.707Z,6460
2017-12-15T10:51:55.687Z,6360
2017-12-15T10:53:05.677Z,6540
2017-12-15T10:54:15.678Z,6452
2017-12-15T10:55:25.446Z,6500
2017-12-15T10:56:35.414Z,6556
2017-12-15T10:57:45.390Z,6476
2017-12-15T10:58:55.352Z,6540
2017-12-15T11:00:05.304Z,6428
2017-12-15T11:01:15.279Z,6092
2017-12-15T11:02:25.203Z,6536
2017-12-15T11:03:35.160Z,6392
2017-12-15T11:04:44.846Z,6228
2017-12-15T11:05:54.033Z,6088
2017-12-15T11:07:03.734Z,6044
2017-12-15T11:08:13.698Z,5980
2017-12-15T11:09:23.398Z,5748
2017-12-15T11:10:32.841Z,5560
2017-12-15T11:11:42.815Z,5804
2017-12-15T11:12:52.558Z,5612
2017-12-15T11:14:02.582Z,5608
2017-12-15T11:15:12.526Z,5288
2017-12-15T11:16:22.237Z,5464
2017-12-15T11:17:32.177Z,5520
2017-12-15T11:18:41.872Z,5272
2017-12-15T11:19:51.559Z,5128
2017-12-15T11:21:00.744Z,5364
2017-12-15T11:22:10.747Z,5596
2017-12-15T11:23:20.191Z,5772
2017-12-15T11:24:30.145Z,5584
2017-12-15T11:25:39.845Z,5312
2017-12-15T11:26:49.802Z,5220
2017-12-15T11:27:58.734Z,4996
2017-12-15T11:29:08.433Z,5044
2017-12-15T11:30:17.874Z,4780
2017-12-15T11:31:27.952Z,4496
2017-12-15T11:32:37.337Z,4652
2017-12-15T11:33:47.308Z,4580
2017-12-15T11:34:57.012Z,4560
2017-12-15T11:36:06.979Z,4556
2017-12-15T11:37:16.932Z,4300
2017-12-15T11:38:26.632Z,4196
2017-12-15T11:39:36.322Z,4116
2017-12-15T11:40:46.017Z,4048
2017-12-15T11:41:55.733Z,3892
2017-12-15T11:43:05.687Z,3960
2017-12-15T11:44:15.639Z,3940
2017-12-15T11:45:25.329Z,3908
2017-12-15T11:46:35.052Z,3692
2017-12-15T11:47:45.021Z,3592
2017-12-15T11:48:55.089Z,3624
2017-12-15T11:50:05.126Z,3736
2017-12-15T11:51:14.303Z,3332
2017-12-15T11:52:24.206Z,3292
2017-12-15T11:53:33.987Z,3284
2017-12-15T11:54:43.734Z,3236
2017-12-15T11:55:53.710Z,3396
2017-12-15T11:57:03.395Z,3428
2017-12-15T11:58:12.846Z,3208
2017-12-15T11:59:22.806Z,3192
2017-12-15T12:00:32.848Z,3476
2017-12-15T12:01:42.857Z,2956
2017-12-15T12:02:52.815Z,2940
2017-12-15T12:04:02.508Z,2824
2017-12-15T12:05:11.968Z,2612
2017-12-15T12:06:21.930Z,2672
2017-12-15T12:07:31.688Z,2828
2017-12-15T12:08:41.652Z,3024
2017-12-15T12:09:51.604Z,2724
2017-12-15T12:11:01.607Z,2372
2017-12-15T12:12:11.665Z,2500
2017-12-15T12:13:21.361Z,2452
2017-12-15T12:14:31.057Z,2328
2017-12-15T12:15:40.741Z,2164
2017-12-15T12:16:50.179Z,2272
2017-12-15T12:17:59.879Z,1956
2017-12-15T12:19:09.574Z,2132
2017-12-15T12:20:19.528Z,1900
2017-12-15T12:21:29.480Z,1892
2017-12-15T12:22:39.421Z,1916
2017-12-15T12:23:49.382Z,1944
2017-12-15T12:24:59.430Z,2064
2017-12-15T12:26:09.405Z,1680
2017-12-15T12:27:19.447Z,1772
2017-12-15T12:28:29.391Z,1848
2017-12-15T12:29:39.340Z,1700
2017-12-15T12:30:48.512Z,1808
2017-12-15T12:31:57.677Z,1928
2017-12-15T12:33:07.150Z,2044
2017-12-15T12:34:16.835Z,2076
2017-12-15T12:35:26.803Z,2012
2017-12-15T12:36:36.491Z,2328
2017-12-15T12:37:46.185Z,1980
2017-12-15T12:38:55.896Z,2164
2017-12-15T12:40:05.916Z,2204
2017-12-15T12:41:15.876Z,2112
2017-12-15T12:42:25.878Z,2260
2017-12-15T12:43:35.848Z,2112
2017-12-15T12:44:45.556Z,2088
2017-12-15T12:45:55.279Z,2092
2017-12-15T12:47:04.950Z,2316
2017-12-15T12:48:14.895Z,2264
2017-12-15T12:49:24.846Z,2504
2017-12-15T12:50:34.798Z,3024
2017-12-15T12:51:44.753Z,3396
2017-12-15T12:52:54.764Z,3500
2017-12-15T12:54:04.740Z,3104
2017-12-15T12:55:14.435Z,2832
2017-12-15T12:56:24.134Z,3220
2017-12-15T12:57:33.819Z,3260
2017-12-15T12:58:43.542Z,3360
2017-12-15T12:59:52.746Z,3984
2017-12-15T13:01:02.435Z,3556
2017-12-15T13:02:12.389Z,3392
2017-12-15T13:03:22.125Z,3552
2017-12-15T13:04:31.822Z,3724
2017-12-15T13:05:41.775Z,3832
2017-12-15T13:06:50.992Z,4656
2017-12-15T13:08:00.702Z,3920
2017-12-15T13:09:10.640Z,3244
2017-12-15T13:10:20.627Z,3088
2017-12-15T13:11:30.344Z,2888
2017-12-15T13:12:40.036Z,2824
2017-12-15T13:13:49.733Z,2368
2017-12-15T13:14:59.451Z,2344
2017-12-15T13:16:09.440Z,2156
2017-12-15T13:17:19.416Z,1924
2017-12-15T13:18:29.135Z,1824
2017-12-15T13:19:38.820Z,1932
2017-12-15T13:20:48.805Z,1900
2017-12-15T13:21:58.523Z,2108
2017-12-15T13:23:08.503Z,2032
2017-12-15T13:24:18.455Z,1952
2017-12-15T13:25:28.408Z,2196
2017-12-15T13:26:38.107Z,1988
2017-12-15T13:27:47.793Z,1824
2017-12-15T13:28:57.764Z,1772
2017-12-15T13:30:07.748Z,1936
2017-12-15T13:31:17.443Z,2036
2017-12-15T13:32:27.148Z,1848
2017-12-15T13:33:37.109Z,1888
2017-12-15T13:34:47.074Z,1752
2017-12-15T13:35:56.769Z,1588
2017-12-15T13:37:06.746Z,1664
2017-12-15T13:38:16.457Z,1640
2017-12-15T13:39:26.434Z,1620
2017-12-15T13:40:36.119Z,1412
2017-12-15T13:41:46.080Z,1368
2017-12-15T13:42:55.532Z,1204
2017-12-15T13:44:04.968Z,1252
2017-12-15T13:45:14.966Z,1192
2017-12-15T13:46:24.915Z,1260
2017-12-15T13:47:34.630Z,1072
2017-12-15T13:48:44.363Z,1076
2017-12-15T13:49:54.045Z,1140
2017-12-15T13:51:03.743Z,1076
2017-12-15T13:52:13.456Z,1072
2017-12-15T13:53:23.174Z,1020
2017-12-15T13:54:32.884Z,1012
2017-12-15T13:55:42.833Z,1028
2017-12-15T13:56:52.514Z,1064
2017-12-15T13:58:02.461Z,1012
2017-12-15T13:59:12.422Z,1036
2017-12-15T14:00:22.359Z,1012
2017-12-15T14:01:32.321Z,1068
2017-12-15T14:02:42.287Z,1024
2017-12-15T14:03:52.238Z,968
2017-12-15T14:05:02.176Z,956
2017-12-15T14:06:12.235Z,944
2017-12-15T14:07:21.920Z,940
2017-12-15T14:08:31.876Z,868
2017-12-15T14:09:41.582Z,816
2017-12-15T14:10:51.262Z,808
2017-12-15T14:12:00.973Z,816
2017-12-15T14:13:10.937Z,772
2017-12-15T14:14:20.904Z,808
2017-12-15T14:15:30.621Z,764
2017-12-15T14:16:40.609Z,744
2017-12-15T14:17:50.298Z,752
2017-12-15T14:19:00.244Z,764
2017-12-15T14:20:09.942Z,708
2017-12-15T14:21:19.895Z,768
2017-12-15T14:22:29.836Z,832
2017-12-15T14:23:39.785Z,772
2017-12-15T14:24:49.793Z,708
2017-12-15T14:25:59.482Z,636
2017-12-15T14:27:09.449Z,712
2017-12-15T14:28:19.127Z,624
2017-12-15T14:29:28.806Z,588
2017-12-15T14:30:38.496Z,648
2017-12-15T14:31:48.186Z,664
2017-12-15T14:32:57.881Z,620
2017-12-15T14:34:07.327Z,632
2017-12-15T14:35:17.042Z,540
2017-12-15T14:36:26.990Z,612
2017-12-15T14:37:36.947Z,536
2017-12-15T14:38:46.890Z,472
2017-12-15T14:39:56.851Z,412
2017-12-15T14:41:06.801Z,380
2017-12-15T14:42:16.739Z,368
2017-12-15T14:43:26.687Z,424
2017-12-15T14:44:36.636Z,408
2017-12-15T14:45:46.586Z,384
2017-12-15T14:46:56.007Z,296
2017-12-15T14:48:05.962Z,252
2017-12-15T14:49:15.413Z,208
2017-12-15T14:50:25.102Z,168
2017-12-15T14:51:35.069Z,156
2017-12-15T14:52:45.017Z,148
2017-12-15T14:53:54.999Z,148
2017-12-15T14:55:04.703Z,136
2017-12-15T14:56:14.404Z,120
2017-12-15T14:57:23.834Z,108
2017-12-15T14:58:33.551Z,100
2017-12-15T14:59:43.512Z,84
2017-12-15T15:00:53.458Z,68
2017-12-15T15:02:03.146Z,52
2017-12-15T15:03:12.858Z,40
2017-12-15T15:04:22.543Z,32
2017-12-15T15:05:32.230Z,24
2017-12-15T15:06:41.665Z,20
2017-12-15T15:07:51.621Z,16
2017-12-15T15:09:01.597Z,16
2017-12-15T15:10:11.557Z,12
2017-12-15T15:11:21.520Z,12
2017-12-15T15:12:31.470Z,16
2017-12-15T15:13:41.155Z,8
2017-12-15T15:14:51.105Z,8
2017-12-15T15:16:00.528Z,4
2017-12-15T15:17:10.221Z,4
2017-12-15T15:18:20.183Z,4
2017-12-15T15:19:29.876Z,4
2017-12-15T15:20:39.640Z,4
2017-12-15T15:21:49.130Z,4
2017-12-15T15:22:58.839Z,0
2017-12-15T15:24:08.546Z,4
2017-12-15T15:25:17.992Z,4
2017-12-15T15:26:28.002Z,4
2017-12-15T15:27:37.744Z,4
2017-12-15T15:28:47.699Z,0
2017-12-15T15:29:57.655Z,0
2017-12-15T15:31:07.608Z,0
2017-12-15T15:32:17.572Z,0
2017-12-15T15:33:27.049Z,0
2017-12-15T15:34:36.477Z,0
2017-12-15T15:35:46.424Z,0
2017-12-15T15:36:55.863Z,0
2017-12-15T15:38:05.806Z,0
2017-12-15T15:39:15.768Z,0
2017-12-15T15:40:25.739Z,0
2017-12-15T15:41:35.422Z,0
2017-12-15T15:42:45.362Z,0
2017-12-15T15:43:55.307Z,0
2017-12-15T15:45:05.263Z,0
2017-12-15T15:46:14.983Z,0
2017-12-15T15:47:24.947Z,0
2017-12-15T15:48:34.651Z,0
2017-12-15T15:49:44.613Z,0
2017-12-15T15:50:54.570Z,0
2017-12-15T15:52:04.541Z,0
2017-12-15T15:53:13.967Z,0
2017-12-15T15:54:23.674Z,0
2017-12-15T15:55:33.686Z,0
2017-12-15T15:56:43.374Z,0
2017-12-15T15:57:53.062Z,0
2017-12-15T15:59:02.758Z,0
2017-12-15T16:00:12.448Z,0
2017-12-15T16:01:21.889Z,0
2017-12-15T16:02:31.863Z,0
2017-12-15T16:03:41.563Z,0
2017-12-15T16:04:51.269Z,0
2017-12-15T16:06:00.944Z,0
2017-12-15T16:07:10.634Z,0
2017-12-15T16:08:20.591Z,0
2017-12-15T16:09:30.290Z,0
2017-12-15T16:10:39.728Z,0
2017-12-15T16:11:49.696Z,0
2017-12-15T16:12:59.392Z,0
2017-12-15T16:14:08.830Z,0
2017-12-15T16:15:18.280Z,0
2017-12-15T16:16:28.237Z,0
2017-12-15T16:17:37.417Z,0
2017-12-15T16:18:46.853Z,0
2017-12-15T16:19:56.542Z,0
2017-12-15T16:21:06.531Z,0